< Typhoon 200216 2002 Season Typhoon 200218 >
Typhoon 200217 (ELE)
General InformationTrack Information on Google MapsDetailed Wind InformationList of All Images || Disaster Info.ResourceGoogle EarthGE AnimationAtom FeedGeoJSON
Detalied Best Track (Time Zone = UTC)
Year Month Day Hour Lat. Long. Pressure (hPa) Wind (kt) Class Image Chart
2002 8 30 00 12.1 180.3 965 70 7 Image Chart
2002 8 30 03 12.3 180.0 960 75 5 Image Chart
2002 8 30 06 12.6 179.7 955 80 5 Image Chart
2002 8 30 12 13.1 179.3 950 85 5 Image Chart
2002 8 30 18 13.8 178.5 950 85 5 Image Chart
2002 8 31 00 14.3 177.9 950 85 5 Image Chart
2002 8 31 06 15.0 177.6 950 85 5 Image Chart
2002 8 31 12 15.9 177.2 950 85 5 Image Chart
2002 8 31 18 16.7 177.2 950 85 5 Image Chart
2002 9 1 00 18.0 176.7 945 85 5 Image Chart
2002 9 1 06 18.9 176.5 945 85 5 Image Chart
2002 9 1 12 20.0 175.9 945 85 5 Image Chart
2002 9 1 18 20.7 175.6 945 85 5 Image Chart
2002 9 2 00 21.8 175.1 940 90 5 Image Chart
2002 9 2 06 22.6 175.0 940 90 5 Image Chart
2002 9 2 12 23.4 175.0 940 90 5 Image Chart
2002 9 2 18 24.1 175.3 940 90 5 Image Chart
2002 9 3 00 24.9 175.6 940 90 5 Image Chart
2002 9 3 06 25.3 176.0 940 90 5 Image Chart
2002 9 3 12 25.7 176.4 940 90 5 Image Chart
2002 9 3 18 25.9 176.6 945 85 5 Image Chart
2002 9 4 00 26.1 176.9 945 85 5 Image Chart
2002 9 4 06 26.4 176.9 950 85 5 Image Chart
2002 9 4 12 26.8 177.0 955 80 5 Image Chart
2002 9 4 18 27.1 176.7 960 75 5 Image Chart
2002 9 5 00 27.8 175.6 965 65 5 Image Chart
2002 9 5 06 28.3 175.1 970 65 5 Image Chart
2002 9 5 12 28.5 174.8 970 65 5 Image Chart
2002 9 5 18 29.3 174.3 965 65 5 Image Chart
2002 9 6 00 30.0 173.8 965 65 5 Image Chart
2002 9 6 06 30.6 173.1 965 65 5 Image Chart
2002 9 6 12 31.1 172.6 970 65 5 Image Chart
2002 9 6 18 31.9 172.0 975 60 4 Image Chart
2002 9 7 00 32.7 170.8 975 60 4 Image Chart
2002 9 7 06 33.5 169.7 980 55 4 Image Chart
2002 9 7 12 34.0 169.0 985 50 4 Image Chart
2002 9 7 18 34.1 167.4 990 50 4 Image Chart
2002 9 8 00 34.5 166.6 990 50 4 Image Chart
2002 9 8 06 34.9 166.1 992 45 3 Image Chart
2002 9 8 12 35.6 165.6 992 40 3 Image Chart
2002 9 8 18 36.2 165.5 992 40 3 Image Chart
2002 9 9 00 36.9 165.3 992 40 3 Image Chart
2002 9 9 06 37.4 165.6 992 40 3 Image Chart
2002 9 9 12 38.5 166.4 996 35 3 Image Chart
2002 9 9 18 39.9 167.2 1000 0 2 Image Chart
2002 9 10 00 41.4 167.3 1000 0 2 Image Chart
2002 9 10 06 42.8 168.4 998 0 6 Image Chart
2002 9 10 12 44.2 170.7 998 0 6 Image Chart
2002 9 10 18 46.3 172.5 994 0 6 Image Chart
2002 9 11 00 48.4 175.6 992 0 6 Image Chart
2002 9 11 06 51.2 177.4 992 0 6 Image Chart
2002 9 11 12 54.6 178.0 992 0 6 Image Chart
2002 9 11 18 56.7 179.0 988 0 6 Image Chart
2002 9 12 00 57.6 181.4 986 0 6 Image Chart
Japan Meteorological Agency Best Track Data | Correction Date : 2006-01-18
< Typhoon 200216 2002 Season Typhoon 200218 >

Help